sensor_id;sensor_type;location;lat;lon;timestamp;temperature;humidity
70682;SHT31;58261;48.228;11.686;2022-07-11T00:02:56;15.4;62
70682;SHT31;58261;48.228;11.686;2022-07-11T00:06:16;15.4;62
70682;SHT31;58261;48.228;11.686;2022-07-11T00:09:36;15.4;62
70682;SHT31;58261;48.228;11.686;2022-07-11T00:12:56;15.3;62
70682;SHT31;58261;48.228;11.686;2022-07-11T00:16:16;15.3;62
70682;SHT31;58261;48.228;11.686;2022-07-11T00:19:36;15.3;62
70682;SHT31;58261;48.228;11.686;2022-07-11T00:22:56;15.2;63
70682;SHT31;58261;48.228;11.686;2022-07-11T00:26:16;15.2;63
70682;SHT31;58261;48.228;11.686;2022-07-11T00:29:36;15.2;63
70682;SHT31;58261;48.228;11.686;2022-07-11T00:32:56;15.2;63
70682;SHT31;58261;48.228;11.686;2022-07-11T00:36:16;15.4;62
70682;SHT31;58261;48.228;11.686;2022-07-11T00:39:36;15.4;62
70682;SHT31;58261;48.228;11.686;2022-07-11T00:42:56;15.4;62
70682;SHT31;58261;48.228;11.686;2022-07-11T00:46:16;15.3;63
70682;SHT31;58261;48.228;11.686;2022-07-11T00:49:36;15.3;63
70682;SHT31;58261;48.228;11.686;2022-07-11T00:52:56;15.3;63
70682;SHT31;58261;48.228;11.686;2022-07-11T00:56:16;15.3;63
70682;SHT31;58261;48.228;11.686;2022-07-11T00:59:36;15.3;63
70682;SHT31;58261;48.228;11.686;2022-07-11T01:02:56;15.3;63
70682;SHT31;58261;48.228;11.686;2022-07-11T01:06:16;15.1;65
70682;SHT31;58261;48.228;11.686;2022-07-11T01:09:36;15.1;65
70682;SHT31;58261;48.228;11.686;2022-07-11T01:12:56;15.1;65
70682;SHT31;58261;48.228;11.686;2022-07-11T01:16:17;15.1;65
70682;SHT31;58261;48.228;11.686;2022-07-11T01:19:36;15.2;65
70682;SHT31;58261;48.228;11.686;2022-07-11T01:22:59;15.2;65
70682;SHT31;58261;48.228;11.686;2022-07-11T01:26:16;15.2;65
70682;SHT31;58261;48.228;11.686;2022-07-11T01:29:36;15.3;65
70682;SHT31;58261;48.228;11.686;2022-07-11T01:32:56;15.3;65
70682;SHT31;58261;48.228;11.686;2022-07-11T01:36:16;15.3;65
70682;SHT31;58261;48.228;11.686;2022-07-11T01:39:36;15.3;64
70682;SHT31;58261;48.228;11.686;2022-07-11T01:42:56;15.3;64
70682;SHT31;58261;48.228;11.686;2022-07-11T01:46:16;15.3;64
70682;SHT31;58261;48.228;11.686;2022-07-11T01:49:36;15.3;63
70682;SHT31;58261;48.228;11.686;2022-07-11T01:52:56;15.3;63
70682;SHT31;58261;48.228;11.686;2022-07-11T01:56:16;15.3;63
70682;SHT31;58261;48.228;11.686;2022-07-11T01:59:36;15.3;63
70682;SHT31;58261;48.228;11.686;2022-07-11T02:02:56;15.3;65
70682;SHT31;58261;48.228;11.686;2022-07-11T02:06:16;15.3;65
70682;SHT31;58261;48.228;11.686;2022-07-11T02:09:36;15.3;65
70682;SHT31;58261;48.228;11.686;2022-07-11T02:12:56;15.3;64
70682;SHT31;58261;48.228;11.686;2022-07-11T02:16:16;15.3;64
70682;SHT31;58261;48.228;11.686;2022-07-11T02:19:36;15.3;64
70682;SHT31;58261;48.228;11.686;2022-07-11T02:22:56;14.9;66
70682;SHT31;58261;48.228;11.686;2022-07-11T02:26:16;14.9;66
70682;SHT31;58261;48.228;11.686;2022-07-11T02:29:36;14.9;66
70682;SHT31;58261;48.228;11.686;2022-07-11T02:32:56;14.9;66
70682;SHT31;58261;48.228;11.686;2022-07-11T02:36:16;14.9;67
70682;SHT31;58261;48.228;11.686;2022-07-11T02:39:36;14.9;67
70682;SHT31;58261;48.228;11.686;2022-07-11T02:42:56;14.9;67
70682;SHT31;58261;48.228;11.686;2022-07-11T02:46:16;14.9;64
70682;SHT31;58261;48.228;11.686;2022-07-11T02:49:36;14.9;64
70682;SHT31;58261;48.228;11.686;2022-07-11T02:52:56;14.9;64
70682;SHT31;58261;48.228;11.686;2022-07-11T02:56:16;14.8;63
70682;SHT31;58261;48.228;11.686;2022-07-11T02:59:36;14.8;63
70682;SHT31;58261;48.228;11.686;2022-07-11T03:02:56;14.8;63
70682;SHT31;58261;48.228;11.686;2022-07-11T03:06:16;14.7;65
70682;SHT31;58261;48.228;11.686;2022-07-11T03:09:36;14.7;65
70682;SHT31;58261;48.228;11.686;2022-07-11T03:12:56;14.7;65
70682;SHT31;58261;48.228;11.686;2022-07-11T03:16:16;14.7;65
70682;SHT31;58261;48.228;11.686;2022-07-11T03:19:36;14.4;67
70682;SHT31;58261;48.228;11.686;2022-07-11T03:22:56;14.4;67
70682;SHT31;58261;48.228;11.686;2022-07-11T03:26:16;14.4;67
70682;SHT31;58261;48.228;11.686;2022-07-11T03:29:36;14.5;67
70682;SHT31;58261;48.228;11.686;2022-07-11T03:32:56;14.5;67
70682;SHT31;58261;48.228;11.686;2022-07-11T03:36:16;14.5;67
70682;SHT31;58261;48.228;11.686;2022-07-11T03:39:36;14.5;67
70682;SHT31;58261;48.228;11.686;2022-07-11T03:42:56;14.5;67
70682;SHT31;58261;48.228;11.686;2022-07-11T03:46:16;14.5;67
70682;SHT31;58261;48.228;11.686;2022-07-11T03:49:36;14.6;66
70682;SHT31;58261;48.228;11.686;2022-07-11T03:52:56;14.6;66
70682;SHT31;58261;48.228;11.686;2022-07-11T03:56:16;14.6;66
70682;SHT31;58261;48.228;11.686;2022-07-11T03:59:36;14.6;66
70682;SHT31;58261;48.228;11.686;2022-07-11T04:02:56;14.6;65
70682;SHT31;58261;48.228;11.686;2022-07-11T04:06:16;14.6;65
70682;SHT31;58261;48.228;11.686;2022-07-11T04:09:36;14.6;65
70682;SHT31;58261;48.228;11.686;2022-07-11T04:12:56;14.7;63
70682;SHT31;58261;48.228;11.686;2022-07-11T04:16:16;14.7;63
70682;SHT31;58261;48.228;11.686;2022-07-11T04:19:36;14.7;63
70682;SHT31;58261;48.228;11.686;2022-07-11T04:22:56;14.7;63
70682;SHT31;58261;48.228;11.686;2022-07-11T04:26:16;14.7;63
70682;SHT31;58261;48.228;11.686;2022-07-11T04:29:36;14.7;63
70682;SHT31;58261;48.228;11.686;2022-07-11T04:32:56;14.8;64
70682;SHT31;58261;48.228;11.686;2022-07-11T04:36:16;14.8;64
70682;SHT31;58261;48.228;11.686;2022-07-11T04:39:36;14.8;64
70682;SHT31;58261;48.228;11.686;2022-07-11T04:42:56;14.8;64
70682;SHT31;58261;48.228;11.686;2022-07-11T04:46:16;14.9;63
70682;SHT31;58261;48.228;11.686;2022-07-11T04:49:36;14.9;63
70682;SHT31;58261;48.228;11.686;2022-07-11T04:52:56;14.9;63
70682;SHT31;58261;48.228;11.686;2022-07-11T04:56:16;14.9;62
70682;SHT31;58261;48.228;11.686;2022-07-11T04:59:36;14.9;62
70682;SHT31;58261;48.228;11.686;2022-07-11T05:02:56;14.9;62
70682;SHT31;58261;48.228;11.686;2022-07-11T05:06:16;14.9;62
70682;SHT31;58261;48.228;11.686;2022-07-11T05:09:36;14.9;62
70682;SHT31;58261;48.228;11.686;2022-07-11T05:12:56;14.9;62
70682;SHT31;58261;48.228;11.686;2022-07-11T05:16:16;14.7;62
70682;SHT31;58261;48.228;11.686;2022-07-11T05:19:36;14.7;62
70682;SHT31;58261;48.228;11.686;2022-07-11T05:22:56;14.7;62
70682;SHT31;58261;48.228;11.686;2022-07-11T05:26:16;14.7;62
70682;SHT31;58261;48.228;11.686;2022-07-11T05:29:36;14.8;63
70682;SHT31;58261;48.228;11.686;2022-07-11T05:32:56;14.8;63
70682;SHT31;58261;48.228;11.686;2022-07-11T05:36:16;14.8;63
70682;SHT31;58261;48.228;11.686;2022-07-11T05:39:36;14.7;64
70682;SHT31;58261;48.228;11.686;2022-07-11T05:42:56;14.7;64
70682;SHT31;58261;48.228;11.686;2022-07-11T05:46:16;14.7;64
70682;SHT31;58261;48.228;11.686;2022-07-11T05:49:36;14.9;65
70682;SHT31;58261;48.228;11.686;2022-07-11T05:52:57;14.9;65
70682;SHT31;58261;48.228;11.686;2022-07-11T05:56:17;14.9;65
70682;SHT31;58261;48.228;11.686;2022-07-11T05:59:37;14.9;65
70682;SHT31;58261;48.228;11.686;2022-07-11T06:02:57;14.9;65
70682;SHT31;58261;48.228;11.686;2022-07-11T06:06:17;14.9;65
70682;SHT31;58261;48.228;11.686;2022-07-11T06:09:37;14.9;65
70682;SHT31;58261;48.228;11.686;2022-07-11T06:12:57;15.0;63
70682;SHT31;58261;48.228;11.686;2022-07-11T06:16:17;15.0;63
70682;SHT31;58261;48.228;11.686;2022-07-11T06:19:37;15.0;63
70682;SHT31;58261;48.228;11.686;2022-07-11T06:22:57;15.1;63
70682;SHT31;58261;48.228;11.686;2022-07-11T06:26:17;15.1;63
70682;SHT31;58261;48.228;11.686;2022-07-11T06:29:37;15.1;63
70682;SHT31;58261;48.228;11.686;2022-07-11T06:32:57;15.2;62
70682;SHT31;58261;48.228;11.686;2022-07-11T06:36:17;15.2;62
70682;SHT31;58261;48.228;11.686;2022-07-11T06:39:37;15.2;62
70682;SHT31;58261;48.228;11.686;2022-07-11T06:42:57;15.3;63
70682;SHT31;58261;48.228;11.686;2022-07-11T06:46:17;15.3;63
70682;SHT31;58261;48.228;11.686;2022-07-11T06:49:37;15.3;63
70682;SHT31;58261;48.228;11.686;2022-07-11T06:52:57;15.3;63
70682;SHT31;58261;48.228;11.686;2022-07-11T06:56:17;15.6;62
70682;SHT31;58261;48.228;11.686;2022-07-11T06:59:37;15.6;62
70682;SHT31;58261;48.228;11.686;2022-07-11T07:02:57;15.6;62
70682;SHT31;58261;48.228;11.686;2022-07-11T07:06:17;15.7;62
70682;SHT31;58261;48.228;11.686;2022-07-11T07:09:37;15.7;62
70682;SHT31;58261;48.228;11.686;2022-07-11T07:12:57;15.7;62
70682;SHT31;58261;48.228;11.686;2022-07-11T07:16:17;15.9;63
70682;SHT31;58261;48.228;11.686;2022-07-11T07:19:37;15.9;63
70682;SHT31;58261;48.228;11.686;2022-07-11T07:22:57;15.9;63
70682;SHT31;58261;48.228;11.686;2022-07-11T07:26:17;15.9;63
70682;SHT31;58261;48.228;11.686;2022-07-11T07:29:37;16.0;60
70682;SHT31;58261;48.228;11.686;2022-07-11T07:32:57;16.0;60
70682;SHT31;58261;48.228;11.686;2022-07-11T07:36:17;16.0;60
70682;SHT31;58261;48.228;11.686;2022-07-11T07:39:37;16.2;60
70682;SHT31;58261;48.228;11.686;2022-07-11T07:42:57;16.2;60
70682;SHT31;58261;48.228;11.686;2022-07-11T07:46:17;16.2;60
70682;SHT31;58261;48.228;11.686;2022-07-11T07:49:37;16.3;59
70682;SHT31;58261;48.228;11.686;2022-07-11T07:52:57;16.3;59
70682;SHT31;58261;48.228;11.686;2022-07-11T07:56:17;16.3;59
70682;SHT31;58261;48.228;11.686;2022-07-11T07:59:37;16.4;59
70682;SHT31;58261;48.228;11.686;2022-07-11T08:06:17;16.4;59
70682;SHT31;58261;48.228;11.686;2022-07-11T08:09:37;16.4;59
70682;SHT31;58261;48.228;11.686;2022-07-11T08:12:57;16.6;58
70682;SHT31;58261;48.228;11.686;2022-07-11T08:16:17;16.6;58
70682;SHT31;58261;48.228;11.686;2022-07-11T08:19:37;16.6;58
70682;SHT31;58261;48.228;11.686;2022-07-11T08:22:58;16.6;58
70682;SHT31;58261;48.228;11.686;2022-07-11T08:26:17;16.6;58
70682;SHT31;58261;48.228;11.686;2022-07-11T08:29:37;16.6;58
70682;SHT31;58261;48.228;11.686;2022-07-11T08:32:57;16.8;58
70682;SHT31;58261;48.228;11.686;2022-07-11T08:36:17;16.8;58
70682;SHT31;58261;48.228;11.686;2022-07-11T08:39:37;16.8;58
70682;SHT31;58261;48.228;11.686;2022-07-11T08:42:57;17.1;59
70682;SHT31;58261;48.228;11.686;2022-07-11T08:46:17;17.1;59
70682;SHT31;58261;48.228;11.686;2022-07-11T08:49:37;17.1;59
70682;SHT31;58261;48.228;11.686;2022-07-11T08:52:57;17.1;59
70682;SHT31;58261;48.228;11.686;2022-07-11T08:56:17;17.3;58
70682;SHT31;58261;48.228;11.686;2022-07-11T08:59:37;17.3;58
70682;SHT31;58261;48.228;11.686;2022-07-11T09:02:57;17.3;58
70682;SHT31;58261;48.228;11.686;2022-07-11T09:06:17;17.4;57
70682;SHT31;58261;48.228;11.686;2022-07-11T09:09:37;17.4;57
70682;SHT31;58261;48.228;11.686;2022-07-11T09:12:57;17.4;57
70682;SHT31;58261;48.228;11.686;2022-07-11T09:16:17;17.4;57
70682;SHT31;58261;48.228;11.686;2022-07-11T09:19:37;17.4;57
70682;SHT31;58261;48.228;11.686;2022-07-11T09:22:57;17.4;57
70682;SHT31;58261;48.228;11.686;2022-07-11T09:26:17;17.5;56
70682;SHT31;58261;48.228;11.686;2022-07-11T09:29:37;17.5;56
70682;SHT31;58261;48.228;11.686;2022-07-11T09:32:58;17.5;56
70682;SHT31;58261;48.228;11.686;2022-07-11T09:36:17;17.5;56
70682;SHT31;58261;48.228;11.686;2022-07-11T09:39:37;17.7;55
70682;SHT31;58261;48.228;11.686;2022-07-11T09:42:57;17.7;55
70682;SHT31;58261;48.228;11.686;2022-07-11T09:46:18;17.7;55
70682;SHT31;58261;48.228;11.686;2022-07-11T09:49:38;17.7;56
70682;SHT31;58261;48.228;11.686;2022-07-11T09:52:57;17.7;56
70682;SHT31;58261;48.228;11.686;2022-07-11T09:56:17;17.7;56
70682;SHT31;58261;48.228;11.686;2022-07-11T09:59:37;17.8;56
70682;SHT31;58261;48.228;11.686;2022-07-11T10:02:57;17.8;56
70682;SHT31;58261;48.228;11.686;2022-07-11T10:06:17;17.8;56
70682;SHT31;58261;48.228;11.686;2022-07-11T10:09:37;17.9;56
70682;SHT31;58261;48.228;11.686;2022-07-11T10:12:57;17.9;56
70682;SHT31;58261;48.228;11.686;2022-07-11T10:16:21;17.9;56
70682;SHT31;58261;48.228;11.686;2022-07-11T10:19:45;17.9;56
70682;SHT31;58261;48.228;11.686;2022-07-11T10:22:58;18.0;56
70682;SHT31;58261;48.228;11.686;2022-07-11T10:26:19;18.0;56
70682;SHT31;58261;48.228;11.686;2022-07-11T10:29:38;18.0;56
70682;SHT31;58261;48.228;11.686;2022-07-11T10:32:57;18.1;55
70682;SHT31;58261;48.228;11.686;2022-07-11T10:39:37;18.1;55
70682;SHT31;58261;48.228;11.686;2022-07-11T10:42:57;18.2;55
70682;SHT31;58261;48.228;11.686;2022-07-11T10:46:18;18.2;55
70682;SHT31;58261;48.228;11.686;2022-07-11T10:49:39;18.2;55
70682;SHT31;58261;48.228;11.686;2022-07-11T10:52:57;18.2;55
70682;SHT31;58261;48.228;11.686;2022-07-11T10:56:20;18.2;55
70682;SHT31;58261;48.228;11.686;2022-07-11T11:02:59;18.2;55
70682;SHT31;58261;48.228;11.686;2022-07-11T11:06:17;18.2;54
70682;SHT31;58261;48.228;11.686;2022-07-11T11:09:37;18.2;54
70682;SHT31;58261;48.228;11.686;2022-07-11T11:16:18;18.1;54
70682;SHT31;58261;48.228;11.686;2022-07-11T11:26:18;18.2;56
70682;SHT31;58261;48.228;11.686;2022-07-11T11:29:37;18.2;56
70682;SHT31;58261;48.228;11.686;2022-07-11T11:32:57;18.2;56
70682;SHT31;58261;48.228;11.686;2022-07-11T11:36:17;18.2;56
70682;SHT31;58261;48.228;11.686;2022-07-11T11:39:38;18.3;58
70682;SHT31;58261;48.228;11.686;2022-07-11T11:42:57;18.3;58
70682;SHT31;58261;48.228;11.686;2022-07-11T11:46:17;18.3;58
70682;SHT31;58261;48.228;11.686;2022-07-11T11:49:41;18.4;57
70682;SHT31;58261;48.228;11.686;2022-07-11T11:52:57;18.4;57
70682;SHT31;58261;48.228;11.686;2022-07-11T11:56:19;18.4;57
70682;SHT31;58261;48.228;11.686;2022-07-11T11:59:37;18.5;57
70682;SHT31;58261;48.228;11.686;2022-07-11T12:02:57;18.5;57
70682;SHT31;58261;48.228;11.686;2022-07-11T12:06:20;18.5;57
70682;SHT31;58261;48.228;11.686;2022-07-11T12:09:37;18.6;57
70682;SHT31;58261;48.228;11.686;2022-07-11T12:12:57;18.6;57
70682;SHT31;58261;48.228;11.686;2022-07-11T12:16:17;18.6;57
70682;SHT31;58261;48.228;11.686;2022-07-11T12:19:37;18.6;57
70682;SHT31;58261;48.228;11.686;2022-07-11T12:22:57;18.6;57
70682;SHT31;58261;48.228;11.686;2022-07-11T12:26:17;18.6;57
70682;SHT31;58261;48.228;11.686;2022-07-11T12:29:39;18.6;57
70682;SHT31;58261;48.228;11.686;2022-07-11T12:36:17;18.8;58
70682;SHT31;58261;48.228;11.686;2022-07-11T12:39:38;18.8;58
70682;SHT31;58261;48.228;11.686;2022-07-11T12:42:57;18.9;56
70682;SHT31;58261;48.228;11.686;2022-07-11T12:46:17;18.9;56
70682;SHT31;58261;48.228;11.686;2022-07-11T12:49:37;18.9;56
70682;SHT31;58261;48.228;11.686;2022-07-11T12:52:57;19.0;56
70682;SHT31;58261;48.228;11.686;2022-07-11T12:56:21;19.0;56
70682;SHT31;58261;48.228;11.686;2022-07-11T12:59:38;19.0;56
70682;SHT31;58261;48.228;11.686;2022-07-11T13:02:57;19.0;56
70682;SHT31;58261;48.228;11.686;2022-07-11T13:06:17;19.3;55
70682;SHT31;58261;48.228;11.686;2022-07-11T13:09:37;19.3;55
70682;SHT31;58261;48.228;11.686;2022-07-11T13:12:57;19.3;55
70682;SHT31;58261;48.228;11.686;2022-07-11T13:16:18;19.3;57
70682;SHT31;58261;48.228;11.686;2022-07-11T13:19:37;19.3;57
70682;SHT31;58261;48.228;11.686;2022-07-11T13:22:57;19.3;57
70682;SHT31;58261;48.228;11.686;2022-07-11T13:26:17;19.3;55
70682;SHT31;58261;48.228;11.686;2022-07-11T13:29:37;19.3;55
70682;SHT31;58261;48.228;11.686;2022-07-11T13:32:57;19.3;55
70682;SHT31;58261;48.228;11.686;2022-07-11T13:36:17;19.4;55
70682;SHT31;58261;48.228;11.686;2022-07-11T13:39:37;19.4;55
70682;SHT31;58261;48.228;11.686;2022-07-11T13:42:57;19.4;55
70682;SHT31;58261;48.228;11.686;2022-07-11T13:46:17;19.4;55
70682;SHT31;58261;48.228;11.686;2022-07-11T13:49:37;19.5;57
70682;SHT31;58261;48.228;11.686;2022-07-11T13:52:57;19.5;57
70682;SHT31;58261;48.228;11.686;2022-07-11T13:56:17;19.5;57
70682;SHT31;58261;48.228;11.686;2022-07-11T13:59:37;19.6;54
70682;SHT31;58261;48.228;11.686;2022-07-11T14:02:57;19.6;54
70682;SHT31;58261;48.228;11.686;2022-07-11T14:06:17;19.6;54
70682;SHT31;58261;48.228;11.686;2022-07-11T14:09:37;19.8;54
70682;SHT31;58261;48.228;11.686;2022-07-11T14:12:57;19.8;54
70682;SHT31;58261;48.228;11.686;2022-07-11T14:16:17;19.8;54
70682;SHT31;58261;48.228;11.686;2022-07-11T14:19:37;19.8;55
70682;SHT31;58261;48.228;11.686;2022-07-11T14:22:57;19.8;55
70682;SHT31;58261;48.228;11.686;2022-07-11T14:26:17;19.8;55
70682;SHT31;58261;48.228;11.686;2022-07-11T14:29:37;19.8;55
70682;SHT31;58261;48.228;11.686;2022-07-11T14:32:57;19.8;55
70682;SHT31;58261;48.228;11.686;2022-07-11T14:36:17;19.8;55
70682;SHT31;58261;48.228;11.686;2022-07-11T14:39:37;19.8;55
70682;SHT31;58261;48.228;11.686;2022-07-11T14:42:57;19.7;55
70682;SHT31;58261;48.228;11.686;2022-07-11T14:46:17;19.7;55
70682;SHT31;58261;48.228;11.686;2022-07-11T14:49:37;19.7;55
70682;SHT31;58261;48.228;11.686;2022-07-11T14:52:57;19.8;56
70682;SHT31;58261;48.228;11.686;2022-07-11T14:56:17;19.8;56
70682;SHT31;58261;48.228;11.686;2022-07-11T14:59:37;19.8;56
70682;SHT31;58261;48.228;11.686;2022-07-11T15:02:57;19.8;56
70682;SHT31;58261;48.228;11.686;2022-07-11T15:06:17;19.9;56
70682;SHT31;58261;48.228;11.686;2022-07-11T15:09:37;19.9;56
70682;SHT31;58261;48.228;11.686;2022-07-11T15:12:57;19.9;56
70682;SHT31;58261;48.228;11.686;2022-07-11T15:16:17;19.9;56
70682;SHT31;58261;48.228;11.686;2022-07-11T15:19:37;19.9;56
70682;SHT31;58261;48.228;11.686;2022-07-11T15:22:57;19.9;56
70682;SHT31;58261;48.228;11.686;2022-07-11T15:26:17;19.9;56
70682;SHT31;58261;48.228;11.686;2022-07-11T15:29:37;19.9;56
70682;SHT31;58261;48.228;11.686;2022-07-11T15:32:57;19.9;56
70682;SHT31;58261;48.228;11.686;2022-07-11T15:36:18;19.9;56
70682;SHT31;58261;48.228;11.686;2022-07-11T15:39:37;19.9;56
70682;SHT31;58261;48.228;11.686;2022-07-11T15:42:57;19.9;56
70682;SHT31;58261;48.228;11.686;2022-07-11T15:46:18;19.9;56
70682;SHT31;58261;48.228;11.686;2022-07-11T15:49:38;20.0;55
70682;SHT31;58261;48.228;11.686;2022-07-11T15:52:58;20.0;55
70682;SHT31;58261;48.228;11.686;2022-07-11T15:56:18;20.0;55
70682;SHT31;58261;48.228;11.686;2022-07-11T15:59:37;20.0;54
70682;SHT31;58261;48.228;11.686;2022-07-11T16:02:57;20.0;54
70682;SHT31;58261;48.228;11.686;2022-07-11T16:06:18;20.0;54
70682;SHT31;58261;48.228;11.686;2022-07-11T16:09:38;20.0;55
70682;SHT31;58261;48.228;11.686;2022-07-11T16:12:58;20.0;55
70682;SHT31;58261;48.228;11.686;2022-07-11T16:16:18;20.0;55
70682;SHT31;58261;48.228;11.686;2022-07-11T16:19:38;20.0;55
70682;SHT31;58261;48.228;11.686;2022-07-11T16:22:58;20.0;55
70682;SHT31;58261;48.228;11.686;2022-07-11T16:26:18;20.0;55
70682;SHT31;58261;48.228;11.686;2022-07-11T16:29:38;20.0;55
70682;SHT31;58261;48.228;11.686;2022-07-11T16:32:58;20.0;56
70682;SHT31;58261;48.228;11.686;2022-07-11T16:36:18;20.0;56
70682;SHT31;58261;48.228;11.686;2022-07-11T16:39:38;20.0;56
70682;SHT31;58261;48.228;11.686;2022-07-11T16:42:58;20.0;56
70682;SHT31;58261;48.228;11.686;2022-07-11T16:46:18;20.0;56
70682;SHT31;58261;48.228;11.686;2022-07-11T16:49:38;20.0;56
70682;SHT31;58261;48.228;11.686;2022-07-11T16:52:58;19.9;56
70682;SHT31;58261;48.228;11.686;2022-07-11T16:56:18;19.9;56
70682;SHT31;58261;48.228;11.686;2022-07-11T16:59:38;19.9;56
70682;SHT31;58261;48.228;11.686;2022-07-11T17:02:58;19.8;56
70682;SHT31;58261;48.228;11.686;2022-07-11T17:06:18;19.8;56
70682;SHT31;58261;48.228;11.686;2022-07-11T17:09:38;19.8;56
70682;SHT31;58261;48.228;11.686;2022-07-11T17:12:58;19.8;56
70682;SHT31;58261;48.228;11.686;2022-07-11T17:16:18;19.8;57
70682;SHT31;58261;48.228;11.686;2022-07-11T17:19:38;19.8;57
70682;SHT31;58261;48.228;11.686;2022-07-11T17:22:58;19.8;57
70682;SHT31;58261;48.228;11.686;2022-07-11T17:26:18;19.8;58
70682;SHT31;58261;48.228;11.686;2022-07-11T17:29:38;19.8;58
70682;SHT31;58261;48.228;11.686;2022-07-11T17:32:58;19.8;58
70682;SHT31;58261;48.228;11.686;2022-07-11T17:36:18;19.7;58
70682;SHT31;58261;48.228;11.686;2022-07-11T17:39:38;19.7;58
70682;SHT31;58261;48.228;11.686;2022-07-11T17:42:58;19.7;58
70682;SHT31;58261;48.228;11.686;2022-07-11T17:46:18;19.7;58
70682;SHT31;58261;48.228;11.686;2022-07-11T17:49:38;19.7;58
70682;SHT31;58261;48.228;11.686;2022-07-11T17:52:58;19.7;58
70682;SHT31;58261;48.228;11.686;2022-07-11T17:56:18;19.7;58
70682;SHT31;58261;48.228;11.686;2022-07-11T17:59:38;19.7;59
70682;SHT31;58261;48.228;11.686;2022-07-11T18:02:58;19.7;59
70682;SHT31;58261;48.228;11.686;2022-07-11T18:06:18;19.7;59
70682;SHT31;58261;48.228;11.686;2022-07-11T18:09:38;19.6;59
70682;SHT31;58261;48.228;11.686;2022-07-11T18:12:58;19.6;59
70682;SHT31;58261;48.228;11.686;2022-07-11T18:16:18;19.6;59
70682;SHT31;58261;48.228;11.686;2022-07-11T18:19:38;19.6;60
70682;SHT31;58261;48.228;11.686;2022-07-11T18:22:58;19.6;60
70682;SHT31;58261;48.228;11.686;2022-07-11T18:26:18;19.6;60
70682;SHT31;58261;48.228;11.686;2022-07-11T18:29:38;19.6;60
70682;SHT31;58261;48.228;11.686;2022-07-11T18:32:58;19.5;60
70682;SHT31;58261;48.228;11.686;2022-07-11T18:36:18;19.5;60
70682;SHT31;58261;48.228;11.686;2022-07-11T18:39:38;19.5;60
70682;SHT31;58261;48.228;11.686;2022-07-11T18:42:58;19.4;61
70682;SHT31;58261;48.228;11.686;2022-07-11T18:46:18;19.4;61
70682;SHT31;58261;48.228;11.686;2022-07-11T18:49:38;19.4;61
70682;SHT31;58261;48.228;11.686;2022-07-11T18:52:58;19.4;61
70682;SHT31;58261;48.228;11.686;2022-07-11T18:56:18;19.4;61
70682;SHT31;58261;48.228;11.686;2022-07-11T18:59:38;19.4;61
70682;SHT31;58261;48.228;11.686;2022-07-11T19:02:58;19.4;62
70682;SHT31;58261;48.228;11.686;2022-07-11T19:06:18;19.4;62
70682;SHT31;58261;48.228;11.686;2022-07-11T19:09:38;19.4;62
70682;SHT31;58261;48.228;11.686;2022-07-11T19:12:58;19.4;62
70682;SHT31;58261;48.228;11.686;2022-07-11T19:16:18;19.3;62
70682;SHT31;58261;48.228;11.686;2022-07-11T19:19:38;19.3;62
70682;SHT31;58261;48.228;11.686;2022-07-11T19:22:58;19.3;62
70682;SHT31;58261;48.228;11.686;2022-07-11T19:26:18;19.3;62
70682;SHT31;58261;48.228;11.686;2022-07-11T19:29:38;19.3;62
70682;SHT31;58261;48.228;11.686;2022-07-11T19:32:58;19.3;62
70682;SHT31;58261;48.228;11.686;2022-07-11T19:36:18;19.3;62
70682;SHT31;58261;48.228;11.686;2022-07-11T19:39:38;19.3;62
70682;SHT31;58261;48.228;11.686;2022-07-11T19:42:58;19.3;62
70682;SHT31;58261;48.228;11.686;2022-07-11T19:46:18;19.3;62
70682;SHT31;58261;48.228;11.686;2022-07-11T19:49:38;19.3;62
70682;SHT31;58261;48.228;11.686;2022-07-11T19:52:58;19.3;62
70682;SHT31;58261;48.228;11.686;2022-07-11T19:56:18;19.3;62
70682;SHT31;58261;48.228;11.686;2022-07-11T19:59:38;19.3;62
70682;SHT31;58261;48.228;11.686;2022-07-11T20:02:58;19.3;62
70682;SHT31;58261;48.228;11.686;2022-07-11T20:06:18;19.3;62
70682;SHT31;58261;48.228;11.686;2022-07-11T20:09:38;19.2;63
70682;SHT31;58261;48.228;11.686;2022-07-11T20:12:58;19.2;63
70682;SHT31;58261;48.228;11.686;2022-07-11T20:16:18;19.2;63
70682;SHT31;58261;48.228;11.686;2022-07-11T20:19:38;19.2;63
70682;SHT31;58261;48.228;11.686;2022-07-11T20:22:58;19.2;63
70682;SHT31;58261;48.228;11.686;2022-07-11T20:26:18;19.2;63
70682;SHT31;58261;48.228;11.686;2022-07-11T20:29:38;19.2;63
70682;SHT31;58261;48.228;11.686;2022-07-11T20:32:59;19.2;63
70682;SHT31;58261;48.228;11.686;2022-07-11T20:36:18;19.2;63
70682;SHT31;58261;48.228;11.686;2022-07-11T20:39:38;19.2;63
70682;SHT31;58261;48.228;11.686;2022-07-11T20:42:58;19.1;64
70682;SHT31;58261;48.228;11.686;2022-07-11T20:46:18;19.1;64
70682;SHT31;58261;48.228;11.686;2022-07-11T20:49:38;19.1;64
70682;SHT31;58261;48.228;11.686;2022-07-11T20:52:58;19.1;63
70682;SHT31;58261;48.228;11.686;2022-07-11T20:56:18;19.1;63
70682;SHT31;58261;48.228;11.686;2022-07-11T20:59:38;19.1;63
70682;SHT31;58261;48.228;11.686;2022-07-11T21:02:58;19.1;63
70682;SHT31;58261;48.228;11.686;2022-07-11T21:06:18;19.1;63
70682;SHT31;58261;48.228;11.686;2022-07-11T21:09:38;19.1;63
70682;SHT31;58261;48.228;11.686;2022-07-11T21:12:58;19.1;63
70682;SHT31;58261;48.228;11.686;2022-07-11T21:16:18;19.0;63
70682;SHT31;58261;48.228;11.686;2022-07-11T21:19:38;19.0;63
70682;SHT31;58261;48.228;11.686;2022-07-11T21:22:58;19.0;63
70682;SHT31;58261;48.228;11.686;2022-07-11T21:26:18;19.0;64
70682;SHT31;58261;48.228;11.686;2022-07-11T21:29:38;19.0;64
70682;SHT31;58261;48.228;11.686;2022-07-11T21:32:58;19.0;64
70682;SHT31;58261;48.228;11.686;2022-07-11T21:36:18;18.9;64
70682;SHT31;58261;48.228;11.686;2022-07-11T21:39:38;18.9;64
70682;SHT31;58261;48.228;11.686;2022-07-11T21:42:58;18.9;64
70682;SHT31;58261;48.228;11.686;2022-07-11T21:46:18;18.8;64
70682;SHT31;58261;48.228;11.686;2022-07-11T21:49:38;18.8;64
70682;SHT31;58261;48.228;11.686;2022-07-11T21:52:58;18.8;64
70682;SHT31;58261;48.228;11.686;2022-07-11T21:56:18;18.8;64
70682;SHT31;58261;48.228;11.686;2022-07-11T21:59:36;18.8;67
70682;SHT31;58261;48.228;11.686;2022-07-11T22:02:56;18.8;67
70682;SHT31;58261;48.228;11.686;2022-07-11T22:06:16;18.8;67
70682;SHT31;58261;48.228;11.686;2022-07-11T22:09:36;18.7;69
70682;SHT31;58261;48.228;11.686;2022-07-11T22:12:56;18.7;69
70682;SHT31;58261;48.228;11.686;2022-07-11T22:16:16;18.7;69
70682;SHT31;58261;48.228;11.686;2022-07-11T22:19:36;18.6;68
70682;SHT31;58261;48.228;11.686;2022-07-11T22:22:56;18.6;68
70682;SHT31;58261;48.228;11.686;2022-07-11T22:26:16;18.6;68
70682;SHT31;58261;48.228;11.686;2022-07-11T22:29:36;18.5;69